sensor_id;sensor_type;location;lat;lon;timestamp;temperature;humidity
52113;DHT22;38109;49.488;31.988;2022-08-19T04:04:16;21.50;77.50
52113;DHT22;38109;49.488;31.988;2022-08-19T04:07:13;21.50;77.50
52113;DHT22;38109;49.488;31.988;2022-08-19T04:09:47;21.60;77.40
52113;DHT22;38109;49.488;31.988;2022-08-19T04:12:13;21.50;77.30
52113;DHT22;38109;49.488;31.988;2022-08-19T04:14:40;21.60;77.30
52113;DHT22;38109;49.488;31.988;2022-08-19T04:17:06;21.60;77.20
52113;DHT22;38109;49.488;31.988;2022-08-19T04:19:37;21.60;77.20
52113;DHT22;38109;49.488;31.988;2022-08-19T04:22:07;21.60;77.20
52113;DHT22;38109;49.488;31.988;2022-08-19T04:28:01;21.70;77.10
52113;DHT22;38109;49.488;31.988;2022-08-19T04:30:26;21.70;77.00
52113;DHT22;38109;49.488;31.988;2022-08-19T04:32:52;21.80;77.00
52113;DHT22;38109;49.488;31.988;2022-08-19T05:14:38;22.10;75.80
52113;DHT22;38109;49.488;31.988;2022-08-19T05:17:04;22.00;75.80
52113;DHT22;38109;49.488;31.988;2022-08-19T05:19:30;22.00;76.00
52113;DHT22;38109;49.488;31.988;2022-08-19T05:22:14;22.00;76.00
52113;DHT22;38109;49.488;31.988;2022-08-19T05:28:25;22.00;76.00
52113;DHT22;38109;49.488;31.988;2022-08-19T05:34:25;22.00;76.00
52113;DHT22;38109;49.488;31.988;2022-08-19T05:40:14;22.10;76.00
52113;DHT22;38109;49.488;31.988;2022-08-19T05:42:40;22.20;76.00
52113;DHT22;38109;49.488;31.988;2022-08-19T05:45:06;22.20;75.90
52113;DHT22;38109;49.488;31.988;2022-08-19T05:47:32;22.30;75.70
52113;DHT22;38109;49.488;31.988;2022-08-19T05:50:01;22.30;75.50
52113;DHT22;38109;49.488;31.988;2022-08-19T05:52:27;22.30;75.20
52113;DHT22;38109;49.488;31.988;2022-08-19T05:54:53;22.40;75.20
52113;DHT22;38109;49.488;31.988;2022-08-19T07:58:08;24.80;71.60
52113;DHT22;38109;49.488;31.988;2022-08-19T08:07:26;25.00;71.60
52113;DHT22;38109;49.488;31.988;2022-08-19T08:10:10;25.10;71.40
52113;DHT22;38109;49.488;31.988;2022-08-19T08:16:15;25.30;70.90
52113;DHT22;38109;49.488;31.988;2022-08-19T08:18:41;25.40;70.90
52113;DHT22;38109;49.488;31.988;2022-08-19T08:21:08;25.40;70.60
52113;DHT22;38109;49.488;31.988;2022-08-19T08:24:00;25.40;70.20
52113;DHT22;38109;49.488;31.988;2022-08-19T09:26:41;26.60;68.50
52113;DHT22;38109;49.488;31.988;2022-08-19T09:29:07;26.70;68.60
52113;DHT22;38109;49.488;31.988;2022-08-19T09:31:34;26.80;68.50
52113;DHT22;38109;49.488;31.988;2022-08-19T09:34:00;26.80;68.30
52113;DHT22;38109;49.488;31.988;2022-08-19T09:36:28;26.90;68.10
52113;DHT22;38109;49.488;31.988;2022-08-19T09:39:03;27.00;67.70
52113;DHT22;38109;49.488;31.988;2022-08-19T09:41:29;27.00;67.90
52113;DHT22;38109;49.488;31.988;2022-08-19T09:43:57;27.10;67.70
52113;DHT22;38109;49.488;31.988;2022-08-19T09:46:28;27.20;67.50
52113;DHT22;38109;49.488;31.988;2022-08-19T09:48:59;27.20;67.40
52113;DHT22;38109;49.488;31.988;2022-08-19T09:51:26;27.20;67.80
52113;DHT22;38109;49.488;31.988;2022-08-19T09:53:55;27.30;67.50
52113;DHT22;38109;49.488;31.988;2022-08-19T09:56:23;27.30;67.00
52113;DHT22;38109;49.488;31.988;2022-08-19T09:58:49;27.40;67.10
52113;DHT22;38109;49.488;31.988;2022-08-19T10:01:24;27.40;67.20
52113;DHT22;38109;49.488;31.988;2022-08-19T10:03:52;27.40;67.10
52113;DHT22;38109;49.488;31.988;2022-08-19T10:06:22;27.50;66.80
52113;DHT22;38109;49.488;31.988;2022-08-19T10:08:49;27.50;67.00
52113;DHT22;38109;49.488;31.988;2022-08-19T10:11:15;27.50;67.10
52113;DHT22;38109;49.488;31.988;2022-08-19T10:13:43;27.60;67.00
52113;DHT22;38109;49.488;31.988;2022-08-19T10:16:13;27.60;66.80
52113;DHT22;38109;49.488;31.988;2022-08-19T10:18:40;27.70;66.70
52113;DHT22;38109;49.488;31.988;2022-08-19T10:21:18;27.70;66.70
52113;DHT22;38109;49.488;31.988;2022-08-19T10:23:47;27.70;66.80
52113;DHT22;38109;49.488;31.988;2022-08-19T10:26:20;27.70;66.90
52113;DHT22;38109;49.488;31.988;2022-08-19T10:28:46;27.70;67.20
52113;DHT22;38109;49.488;31.988;2022-08-19T10:31:20;27.80;67.00
52113;DHT22;38109;49.488;31.988;2022-08-19T10:33:50;27.80;66.60
52113;DHT22;38109;49.488;31.988;2022-08-19T10:36:28;27.90;66.60
52113;DHT22;38109;49.488;31.988;2022-08-19T10:38:55;27.90;66.50
52113;DHT22;38109;49.488;31.988;2022-08-19T10:41:28;27.90;66.70
52113;DHT22;38109;49.488;31.988;2022-08-19T10:43:56;28.00;66.60
52113;DHT22;38109;49.488;31.988;2022-08-19T10:46:25;28.00;66.30
52113;DHT22;38109;49.488;31.988;2022-08-19T10:48:52;28.00;66.50
52113;DHT22;38109;49.488;31.988;2022-08-19T10:51:18;28.10;66.60
52113;DHT22;38109;49.488;31.988;2022-08-19T10:54:16;28.10;66.50
52113;DHT22;38109;49.488;31.988;2022-08-19T10:56:42;28.10;66.50
52113;DHT22;38109;49.488;31.988;2022-08-19T10:59:29;28.10;66.50
52113;DHT22;38109;49.488;31.988;2022-08-19T11:01:59;28.20;66.40
52113;DHT22;38109;49.488;31.988;2022-08-19T11:04:27;28.20;66.10
52113;DHT22;38109;49.488;31.988;2022-08-19T11:06:53;28.20;66.30
52113;DHT22;38109;49.488;31.988;2022-08-19T11:09:23;28.20;66.00
52113;DHT22;38109;49.488;31.988;2022-08-19T11:11:50;28.30;66.10
52113;DHT22;38109;49.488;31.988;2022-08-19T11:14:19;28.30;66.10
52113;DHT22;38109;49.488;31.988;2022-08-19T11:16:49;28.30;66.10
52113;DHT22;38109;49.488;31.988;2022-08-19T11:19:16;28.30;65.70
52113;DHT22;38109;49.488;31.988;2022-08-19T11:21:45;28.30;65.80
52113;DHT22;38109;49.488;31.988;2022-08-19T11:24:17;28.30;65.70
52113;DHT22;38109;49.488;31.988;2022-08-19T11:26:44;28.30;65.40
52113;DHT22;38109;49.488;31.988;2022-08-19T11:29:11;28.30;65.10
52113;DHT22;38109;49.488;31.988;2022-08-19T11:31:40;28.30;65.00
52113;DHT22;38109;49.488;31.988;2022-08-19T11:34:10;28.30;65.30
52113;DHT22;38109;49.488;31.988;2022-08-19T11:36:39;28.30;65.40
52113;DHT22;38109;49.488;31.988;2022-08-19T11:39:07;28.30;65.40
52113;DHT22;38109;49.488;31.988;2022-08-19T11:41:33;28.30;65.30
52113;DHT22;38109;49.488;31.988;2022-08-19T11:43:59;28.40;65.30
52113;DHT22;38109;49.488;31.988;2022-08-19T11:46:26;28.40;65.20
52113;DHT22;38109;49.488;31.988;2022-08-19T11:48:59;28.50;64.90
52113;DHT22;38109;49.488;31.988;2022-08-19T11:51:26;28.50;64.90
52113;DHT22;38109;49.488;31.988;2022-08-19T11:53:54;28.50;65.00
52113;DHT22;38109;49.488;31.988;2022-08-19T11:56:21;28.50;65.10
52113;DHT22;38109;49.488;31.988;2022-08-19T11:58:47;28.50;65.30
52113;DHT22;38109;49.488;31.988;2022-08-19T12:01:17;28.60;65.10
52113;DHT22;38109;49.488;31.988;2022-08-19T12:03:44;28.60;64.90
52113;DHT22;38109;49.488;31.988;2022-08-19T12:06:14;28.60;65.00
52113;DHT22;38109;49.488;31.988;2022-08-19T12:08:41;28.60;64.90
52113;DHT22;38109;49.488;31.988;2022-08-19T12:11:07;28.60;64.70
52113;DHT22;38109;49.488;31.988;2022-08-19T12:13:34;28.60;64.50
52113;DHT22;38109;49.488;31.988;2022-08-19T12:16:00;28.60;64.60
52113;DHT22;38109;49.488;31.988;2022-08-19T12:18:32;28.60;64.70
52113;DHT22;38109;49.488;31.988;2022-08-19T12:20:58;28.60;64.20
52113;DHT22;38109;49.488;31.988;2022-08-19T12:23:26;28.60;64.00
52113;DHT22;38109;49.488;31.988;2022-08-19T12:25:51;28.60;64.00
52113;DHT22;38109;49.488;31.988;2022-08-19T12:28:19;28.60;64.00
52113;DHT22;38109;49.488;31.988;2022-08-19T12:30:46;28.60;64.80
52113;DHT22;38109;49.488;31.988;2022-08-19T12:33:12;28.60;64.10
52113;DHT22;38109;49.488;31.988;2022-08-19T12:35:43;28.60;64.30
52113;DHT22;38109;49.488;31.988;2022-08-19T12:38:12;28.60;64.30
52113;DHT22;38109;49.488;31.988;2022-08-19T12:40:38;28.60;63.80
52113;DHT22;38109;49.488;31.988;2022-08-19T12:43:12;28.60;63.80
52113;DHT22;38109;49.488;31.988;2022-08-19T12:45:39;28.60;63.90
52113;DHT22;38109;49.488;31.988;2022-08-19T12:48:05;28.50;63.90
52113;DHT22;38109;49.488;31.988;2022-08-19T12:50:31;28.50;64.00
52113;DHT22;38109;49.488;31.988;2022-08-19T12:52:57;28.50;64.10
52113;DHT22;38109;49.488;31.988;2022-08-19T12:55:23;28.50;64.00
52113;DHT22;38109;49.488;31.988;2022-08-19T12:57:51;28.60;63.80
52113;DHT22;38109;49.488;31.988;2022-08-19T13:00:19;28.60;63.70
52113;DHT22;38109;49.488;31.988;2022-08-19T13:02:48;28.50;63.40
52113;DHT22;38109;49.488;31.988;2022-08-19T13:05:18;28.50;64.40
52113;DHT22;38109;49.488;31.988;2022-08-19T13:07:46;28.40;63.60
52113;DHT22;38109;49.488;31.988;2022-08-19T13:10:14;28.40;63.70
52113;DHT22;38109;49.488;31.988;2022-08-19T13:12:41;28.40;63.80
52113;DHT22;38109;49.488;31.988;2022-08-19T13:15:08;28.40;64.00
52113;DHT22;38109;49.488;31.988;2022-08-19T13:17:35;28.40;64.00
52113;DHT22;38109;49.488;31.988;2022-08-19T13:20:01;28.40;64.10
52113;DHT22;38109;49.488;31.988;2022-08-19T13:22:27;28.40;64.10
52113;DHT22;38109;49.488;31.988;2022-08-19T13:24:52;28.40;64.20
52113;DHT22;38109;49.488;31.988;2022-08-19T13:27:18;28.40;63.80
52113;DHT22;38109;49.488;31.988;2022-08-19T13:29:44;28.50;64.10
52113;DHT22;38109;49.488;31.988;2022-08-19T13:32:29;28.40;63.80
52113;DHT22;38109;49.488;31.988;2022-08-19T13:35:13;28.40;63.90
52113;DHT22;38109;49.488;31.988;2022-08-19T13:37:40;28.40;64.20
52113;DHT22;38109;49.488;31.988;2022-08-19T13:40:13;28.50;64.40
52113;DHT22;38109;49.488;31.988;2022-08-19T13:42:43;28.50;64.30
52113;DHT22;38109;49.488;31.988;2022-08-19T13:45:09;28.50;64.50
52113;DHT22;38109;49.488;31.988;2022-08-19T13:47:36;28.50;64.10
52113;DHT22;38109;49.488;31.988;2022-08-19T13:50:04;28.60;63.90
52113;DHT22;38109;49.488;31.988;2022-08-19T13:52:30;28.60;63.90
52113;DHT22;38109;49.488;31.988;2022-08-19T13:54:56;28.60;63.90
52113;DHT22;38109;49.488;31.988;2022-08-19T13:57:22;28.60;63.90
52113;DHT22;38109;49.488;31.988;2022-08-19T13:59:47;28.60;63.90
52113;DHT22;38109;49.488;31.988;2022-08-19T14:02:13;28.70;63.50
52113;DHT22;38109;49.488;31.988;2022-08-19T14:04:39;28.70;63.50
52113;DHT22;38109;49.488;31.988;2022-08-19T14:07:04;28.70;63.20
52113;DHT22;38109;49.488;31.988;2022-08-19T14:09:30;28.70;63.20
52113;DHT22;38109;49.488;31.988;2022-08-19T14:11:57;28.70;63.50
52113;DHT22;38109;49.488;31.988;2022-08-19T14:14:23;28.70;63.60
52113;DHT22;38109;49.488;31.988;2022-08-19T14:16:49;28.70;63.20
52113;DHT22;38109;49.488;31.988;2022-08-19T14:19:15;28.70;63.10
52113;DHT22;38109;49.488;31.988;2022-08-19T14:21:41;28.70;63.20
52113;DHT22;38109;49.488;31.988;2022-08-19T14:24:07;28.70;63.10
52113;DHT22;38109;49.488;31.988;2022-08-19T14:26:33;28.70;63.30
52113;DHT22;38109;49.488;31.988;2022-08-19T14:28:59;28.80;63.30
52113;DHT22;38109;49.488;31.988;2022-08-19T14:31:26;28.80;63.00
52113;DHT22;38109;49.488;31.988;2022-08-19T14:33:52;28.80;63.00
52113;DHT22;38109;49.488;31.988;2022-08-19T14:36:19;28.90;62.90
52113;DHT22;38109;49.488;31.988;2022-08-19T14:38:47;28.90;62.80
52113;DHT22;38109;49.488;31.988;2022-08-19T14:41:16;29.00;63.00
52113;DHT22;38109;49.488;31.988;2022-08-19T14:43:44;29.10;62.80
52113;DHT22;38109;49.488;31.988;2022-08-19T14:46:19;29.10;62.20
52113;DHT22;38109;49.488;31.988;2022-08-19T14:48:46;29.10;62.20
52113;DHT22;38109;49.488;31.988;2022-08-19T14:51:13;29.20;62.20
52113;DHT22;38109;49.488;31.988;2022-08-19T14:57:26;29.20;62.10
52113;DHT22;38109;49.488;31.988;2022-08-19T14:59:52;29.20;62.10
52113;DHT22;38109;49.488;31.988;2022-08-19T15:02:25;29.10;61.80
52113;DHT22;38109;49.488;31.988;2022-08-19T15:04:50;29.10;61.70
52113;DHT22;38109;49.488;31.988;2022-08-19T15:07:46;29.00;61.70
52113;DHT22;38109;49.488;31.988;2022-08-19T15:10:13;29.00;61.70
52113;DHT22;38109;49.488;31.988;2022-08-19T15:12:39;28.90;62.00
52113;DHT22;38109;49.488;31.988;2022-08-19T15:15:07;28.80;62.10
52113;DHT22;38109;49.488;31.988;2022-08-19T15:17:33;28.70;61.70
52113;DHT22;38109;49.488;31.988;2022-08-19T15:19:58;28.50;61.80
52113;DHT22;38109;49.488;31.988;2022-08-19T15:22:24;28.40;61.90
52113;DHT22;38109;49.488;31.988;2022-08-19T15:25:16;28.20;62.60
52113;DHT22;38109;49.488;31.988;2022-08-19T15:27:44;28.20;62.30
52113;DHT22;38109;49.488;31.988;2022-08-19T15:30:11;28.00;62.50
52113;DHT22;38109;49.488;31.988;2022-08-19T15:32:38;27.90;62.50
52113;DHT22;38109;49.488;31.988;2022-08-19T15:35:05;27.80;62.70
52113;DHT22;38109;49.488;31.988;2022-08-19T15:37:32;27.70;62.90
52113;DHT22;38109;49.488;31.988;2022-08-19T15:39:57;27.60;63.10
52113;DHT22;38109;49.488;31.988;2022-08-19T15:42:23;27.50;63.20
52113;DHT22;38109;49.488;31.988;2022-08-19T15:44:51;27.40;63.20
52113;DHT22;38109;49.488;31.988;2022-08-19T15:47:17;27.40;63.40
52113;DHT22;38109;49.488;31.988;2022-08-19T15:49:44;27.30;63.10
52113;DHT22;38109;49.488;31.988;2022-08-19T15:52:10;27.20;63.20
52113;DHT22;38109;49.488;31.988;2022-08-19T15:54:36;27.20;63.30
52113;DHT22;38109;49.488;31.988;2022-08-19T15:57:02;27.10;63.30
52113;DHT22;38109;49.488;31.988;2022-08-19T15:59:46;27.00;63.50
52113;DHT22;38109;49.488;31.988;2022-08-19T16:02:31;27.00;63.70
52113;DHT22;38109;49.488;31.988;2022-08-19T16:05:20;26.90;63.70
52113;DHT22;38109;49.488;31.988;2022-08-19T16:08:05;26.80;63.80
52113;DHT22;38109;49.488;31.988;2022-08-19T16:10:32;26.80;64.00
52113;DHT22;38109;49.488;31.988;2022-08-19T16:12:58;26.70;64.10
52113;DHT22;38109;49.488;31.988;2022-08-19T16:15:28;26.70;64.20
52113;DHT22;38109;49.488;31.988;2022-08-19T16:17:56;26.60;64.20
52113;DHT22;38109;49.488;31.988;2022-08-19T16:20:21;26.60;64.20
52113;DHT22;38109;49.488;31.988;2022-08-19T16:22:48;26.50;64.30
52113;DHT22;38109;49.488;31.988;2022-08-19T16:25:14;26.50;64.10
52113;DHT22;38109;49.488;31.988;2022-08-19T16:27:40;26.50;64.30
52113;DHT22;38109;49.488;31.988;2022-08-19T16:30:08;26.40;64.30
52113;DHT22;38109;49.488;31.988;2022-08-19T16:32:34;26.30;64.40
52113;DHT22;38109;49.488;31.988;2022-08-19T16:35:03;26.30;64.60
52113;DHT22;38109;49.488;31.988;2022-08-19T16:37:29;26.30;64.80
52113;DHT22;38109;49.488;31.988;2022-08-19T16:39:56;26.20;64.70
52113;DHT22;38109;49.488;31.988;2022-08-19T16:42:23;26.10;64.80
52113;DHT22;38109;49.488;31.988;2022-08-19T16:44:49;26.10;64.80
52113;DHT22;38109;49.488;31.988;2022-08-19T16:47:15;26.10;64.90
52113;DHT22;38109;49.488;31.988;2022-08-19T16:52:18;26.00;65.00
52113;DHT22;38109;49.488;31.988;2022-08-19T16:54:44;25.90;65.00
52113;DHT22;38109;49.488;31.988;2022-08-19T16:57:10;25.90;64.90
52113;DHT22;38109;49.488;31.988;2022-08-19T16:59:36;25.80;64.90
52113;DHT22;38109;49.488;31.988;2022-08-19T17:02:03;25.70;65.10
52113;DHT22;38109;49.488;31.988;2022-08-19T17:04:29;25.70;65.10
52113;DHT22;38109;49.488;31.988;2022-08-19T17:06:55;25.70;65.10
52113;DHT22;38109;49.488;31.988;2022-08-19T17:09:21;25.70;65.10
52113;DHT22;38109;49.488;31.988;2022-08-19T17:11:47;25.60;65.20
52113;DHT22;38109;49.488;31.988;2022-08-19T17:14:13;25.60;65.20
52113;DHT22;38109;49.488;31.988;2022-08-19T17:16:39;25.50;65.20
52113;DHT22;38109;49.488;31.988;2022-08-19T17:19:06;25.50;65.20
52113;DHT22;38109;49.488;31.988;2022-08-19T17:21:34;25.50;65.40
52113;DHT22;38109;49.488;31.988;2022-08-19T17:24:01;25.40;65.20
52113;DHT22;38109;49.488;31.988;2022-08-19T17:26:28;25.40;65.30
52113;DHT22;38109;49.488;31.988;2022-08-19T17:28:56;25.40;65.10
52113;DHT22;38109;49.488;31.988;2022-08-19T17:31:25;25.30;65.10
52113;DHT22;38109;49.488;31.988;2022-08-19T17:33:51;25.30;65.30
52113;DHT22;38109;49.488;31.988;2022-08-19T17:36:21;25.20;65.40
52113;DHT22;38109;49.488;31.988;2022-08-19T17:38:55;25.20;65.40
52113;DHT22;38109;49.488;31.988;2022-08-19T17:41:22;25.20;65.60
52113;DHT22;38109;49.488;31.988;2022-08-19T17:43:48;25.20;65.70
52113;DHT22;38109;49.488;31.988;2022-08-19T17:46:14;25.10;65.80
52113;DHT22;38109;49.488;31.988;2022-08-19T17:48:44;25.10;65.80
52113;DHT22;38109;49.488;31.988;2022-08-19T17:54:09;25.10;65.80
52113;DHT22;38109;49.488;31.988;2022-08-19T17:56:35;25.00;65.80
52113;DHT22;38109;49.488;31.988;2022-08-19T17:59:04;25.00;65.70
52113;DHT22;38109;49.488;31.988;2022-08-19T18:01:30;25.00;65.70
52113;DHT22;38109;49.488;31.988;2022-08-19T18:03:56;25.00;65.90
52113;DHT22;38109;49.488;31.988;2022-08-19T18:06:22;24.90;65.90
52113;DHT22;38109;49.488;31.988;2022-08-19T18:08:48;24.90;65.90
52113;DHT22;38109;49.488;31.988;2022-08-19T18:11:14;24.90;65.90
52113;DHT22;38109;49.488;31.988;2022-08-19T18:13:41;24.90;65.80
52113;DHT22;38109;49.488;31.988;2022-08-19T18:16:08;24.80;65.80
52113;DHT22;38109;49.488;31.988;2022-08-19T18:18:36;24.80;65.80
52113;DHT22;38109;49.488;31.988;2022-08-19T18:21:04;24.80;65.80
52113;DHT22;38109;49.488;31.988;2022-08-19T18:23:30;24.80;65.80
52113;DHT22;38109;49.488;31.988;2022-08-19T18:25:56;24.70;65.80
52113;DHT22;38109;49.488;31.988;2022-08-19T18:28:21;24.70;65.90
52113;DHT22;38109;49.488;31.988;2022-08-19T18:30:48;24.60;65.90
52113;DHT22;38109;49.488;31.988;2022-08-19T18:33:17;24.60;66.00
52113;DHT22;38109;49.488;31.988;2022-08-19T18:42:33;24.50;66.10
52113;DHT22;38109;49.488;31.988;2022-08-19T19:03:14;24.20;66.80
52113;DHT22;38109;49.488;31.988;2022-08-19T19:05:39;24.20;67.00
52113;DHT22;38109;49.488;31.988;2022-08-19T19:08:06;24.20;67.00
52113;DHT22;38109;49.488;31.988;2022-08-19T19:10:32;24.10;67.10
52113;DHT22;38109;49.488;31.988;2022-08-19T19:16:31;24.10;67.20
52113;DHT22;38109;49.488;31.988;2022-08-19T19:43:22;23.80;68.20
52113;DHT22;38109;49.488;31.988;2022-08-19T21:05:44;22.90;70.80
52113;DHT22;38109;49.488;31.988;2022-08-19T21:11:39;22.80;71.20
52113;DHT22;38109;49.488;31.988;2022-08-19T21:14:05;22.80;71.40
52113;DHT22;38109;49.488;31.988;2022-08-19T21:16:31;22.80;71.50
52113;DHT22;38109;49.488;31.988;2022-08-19T21:18:59;22.80;71.70
52113;DHT22;38109;49.488;31.988;2022-08-19T21:21:25;22.80;71.80
52113;DHT22;38109;49.488;31.988;2022-08-19T21:23:51;22.80;71.90
52113;DHT22;38109;49.488;31.988;2022-08-19T21:26:32;22.70;71.90
52113;DHT22;38109;49.488;31.988;2022-08-19T21:32:20;22.70;71.90
52113;DHT22;38109;49.488;31.988;2022-08-19T21:34:46;22.70;72.00
52113;DHT22;38109;49.488;31.988;2022-08-19T21:37:12;22.60;72.10
52113;DHT22;38109;49.488;31.988;2022-08-19T22:01:17;22.40;72.90
52113;DHT22;38109;49.488;31.988;2022-08-19T22:03:42;22.40;73.10
52113;DHT22;38109;49.488;31.988;2022-08-19T22:06:08;22.40;73.30
